Time;durP1;ratioP1;P1;durP2;ratioP2;P2;SDS_P1;SDS_P2;PMS_P1;PMS_P2;Temp;Humidity;BMP_temperature;BMP_pressure;BME280_temperature;BME280_humidity;BME280_pressure;Samples;Min_cycle;Max_cycle;Signal;HPM_P1;HPM_P2
2022/08/25 00:01:58;;;;;;;;;;;;;;;23.57;100.00;100903.06;12877631;23;20022;-73
2022/08/25 00:07:02;;;;;;;;;;;;;;;23.54;100.00;100895.28;12876139;23;19927;-71
2022/08/25 00:12:07;;;;;;;;;;;;;;;23.51;100.00;100893.63;12862171;23;20327;-74
2022/08/25 00:17:10;;;;;;;;;;;;;;;23.60;100.00;100892.28;12861989;23;19924;-71
2022/08/25 00:22:13;;;;;;;;;;;;;;;23.58;100.00;100886.19;12861793;23;19995;-69
2022/08/25 00:27:18;;;;;;;;;;;;;;;23.62;100.00;100880.66;12861969;23;20537;-67
2022/08/25 00:32:21;;;;;;;;;;;;;;;23.58;100.00;100873.81;12861587;23;20006;-66
2022/08/25 00:37:24;;;;;;;;;;;;;;;23.61;100.00;100875.41;12861694;23;19920;-68
2022/08/25 00:42:28;;;;;;;;;;;;;;;23.59;100.00;100874.69;12862127;23;19959;-67
2022/08/25 00:47:31;;;;;;;;;;;;;;;23.57;100.00;100865.94;12861973;23;19991;-65
2022/08/25 00:52:37;;;;;;;;;;;;;;;23.58;100.00;100867.66;12861047;23;20006;-67
2022/08/25 00:57:43;;;;;;;;;;;;;;;23.58;100.00;100857.03;12861412;23;20272;-68
2022/08/25 01:02:46;;;;;;;;;;;;;;;23.52;100.00;100860.88;12860932;23;20011;-66
2022/08/25 01:07:51;;;;;;;;;;;;;;;23.51;100.00;100855.66;12861264;23;19983;-66
2022/08/25 01:13:05;;;;;;;;;;;;;;;23.53;100.00;100854.66;12875565;23;19924;-69
2022/08/25 01:18:12;;;;;;;;;;;;;;;23.55;100.00;100850.13;12875095;23;19998;-67
2022/08/25 01:23:16;;;;;;;;;;;;;;;23.52;100.00;100857.41;12861235;23;19991;-68
2022/08/25 01:28:20;;;;;;;;;;;;;;;23.54;100.00;100850.22;12862037;23;19995;-70
2022/08/25 01:33:23;;;;;;;;;;;;;;;23.55;100.00;100846.63;12862688;23;19923;-70
2022/08/25 01:38:27;;;;;;;;;;;;;;;23.52;100.00;100858.22;12861500;23;19955;-69
2022/08/25 01:43:35;;;;;;;;;;;;;;;23.43;100.00;100863.19;12860279;23;20264;-67
2022/08/25 01:48:38;;;;;;;;;;;;;;;23.48;100.00;100858.50;12876140;23;19991;-77
2022/08/25 01:53:43;;;;;;;;;;;;;;;23.52;100.00;100868.00;12867228;23;19995;-70
2022/08/25 01:58:47;;;;;;;;;;;;;;;23.49;100.00;100868.16;12867277;23;20292;-70
2022/08/25 02:03:51;;;;;;;;;;;;;;;23.48;100.00;100864.66;12866661;23;19952;-69
2022/08/25 02:08:59;;;;;;;;;;;;;;;23.51;100.00;100860.97;12867127;23;19987;-70
2022/08/25 02:14:02;;;;;;;;;;;;;;;23.51;100.00;100847.72;12882590;23;20421;-73
2022/08/25 02:19:06;;;;;;;;;;;;;;;23.46;100.00;100844.47;12866415;23;20351;-69
2022/08/25 02:24:11;;;;;;;;;;;;;;;23.44;100.00;100849.00;12866394;23;20322;-69
2022/08/25 02:29:15;;;;;;;;;;;;;;;23.41;100.00;100843.88;12867000;23;19954;-70
2022/08/25 02:34:18;;;;;;;;;;;;;;;23.38;100.00;100842.25;12866223;23;19931;-68
2022/08/25 02:39:23;;;;;;;;;;;;;;;23.49;100.00;100841.66;12866976;23;20000;-70
2022/08/25 02:44:26;;;;;;;;;;;;;;;23.48;100.00;100839.94;12866252;23;19954;-67
2022/08/25 02:49:30;;;;;;;;;;;;;;;23.46;100.00;100848.00;12866611;23;19987;-70
2022/08/25 02:54:35;;;;;;;;;;;;;;;23.47;100.00;100838.25;12866032;23;19926;-69
2022/08/25 02:59:38;;;;;;;;;;;;;;;23.49;100.00;100865.50;12865953;23;19995;-69
2022/08/25 03:04:42;;;;;;;;;;;;;;;23.56;100.00;100857.13;12866091;23;19943;-68
2022/08/25 03:09:47;;;;;;;;;;;;;;;23.49;100.00;100855.75;12866397;23;19939;-70
2022/08/25 03:14:50;;;;;;;;;;;;;;;23.52;100.00;100847.63;12865831;23;20339;-69
2022/08/25 03:19:52;;;;;;;;;;;;;;;23.51;100.00;100845.06;12866387;23;19983;-70
2022/08/25 03:26:52;;;;;;;;;;;;;;;23.50;100.00;100843.38;12865917;23;19944;-69
2022/08/25 03:30:26;;;;;;;;;;;;;;;23.51;100.00;100845.94;12883234;23;20319;-69
2022/08/25 03:35:29;;;;;;;;;;;;;;;23.50;100.00;100846.03;12870457;23;19982;-70
2022/08/25 03:40:34;;;;;;;;;;;;;;;23.56;100.00;100848.31;12869781;23;19920;-69
2022/08/25 03:45:39;;;;;;;;;;;;;;;23.55;100.00;100847.47;12870179;23;19987;-69
2022/08/25 03:50:44;;;;;;;;;;;;;;;23.51;100.00;100845.06;12884322;23;19995;-69
2022/08/25 03:55:54;;;;;;;;;;;;;;;23.50;100.00;100846.03;12883409;23;19920;-70
2022/08/25 04:00:59;;;;;;;;;;;;;;;23.45;100.00;100850.72;12869402;23;19987;-70
2022/08/25 04:06:02;;;;;;;;;;;;;;;23.46;100.00;100844.47;12869177;23;19943;-67
2022/08/25 04:11:08;;;;;;;;;;;;;;;23.44;100.00;100849.88;12869164;23;19927;-69
2022/08/25 04:16:13;;;;;;;;;;;;;;;23.47;100.00;100848.84;12882876;23;19920;-68
2022/08/25 04:21:17;;;;;;;;;;;;;;;23.51;100.00;100835.34;12868788;23;19943;-69
2022/08/25 04:26:22;;;;;;;;;;;;;;;23.47;100.00;100830.31;12868750;23;19944;-68
2022/08/25 04:31:26;;;;;;;;;;;;;;;23.47;100.00;100825.84;12882167;23;19958;-67
2022/08/25 04:36:29;;;;;;;;;;;;;;;23.51;100.00;100832.69;12869060;23;19951;-69
2022/08/25 04:41:34;;;;;;;;;;;;;;;23.58;100.00;100827.88;12868301;23;20315;-68
2022/08/25 04:46:37;;;;;;;;;;;;;;;23.57;100.00;100824.38;12868437;23;19992;-69
2022/08/25 04:51:40;;;;;;;;;;;;;;;23.61;100.00;100827.72;12868459;23;19985;-69
2022/08/25 04:56:45;;;;;;;;;;;;;;;23.64;100.00;100822.25;12868396;23;20000;-69
2022/08/25 05:01:49;;;;;;;;;;;;;;;23.61;100.00;100820.63;12868165;23;19995;-69
2022/08/25 05:06:54;;;;;;;;;;;;;;;23.61;100.00;100820.63;12882080;23;19939;-69
2022/08/25 05:11:58;;;;;;;;;;;;;;;23.59;100.00;100816.38;12868437;23;20002;-68
2022/08/25 05:17:01;;;;;;;;;;;;;;;23.60;100.00;100823.34;12867683;23;20354;-68
2022/08/25 05:22:05;;;;;;;;;;;;;;;23.59;100.00;100819.00;12867755;23;19924;-69
2022/08/25 05:27:09;;;;;;;;;;;;;;;23.63;100.00;100817.88;12867407;23;19920;-69
2022/08/25 05:32:12;;;;;;;;;;;;;;;23.62;100.00;100811.75;12867408;23;19963;-70
2022/08/25 05:37:15;;;;;;;;;;;;;;;23.71;100.00;100810.38;12867491;23;19920;-70
2022/08/25 05:42:21;;;;;;;;;;;;;;;23.74;100.00;100811.06;12867655;23;20299;-69
2022/08/25 05:47:24;;;;;;;;;;;;;;;23.78;100.00;100814.38;12868875;23;19978;-71
2022/08/25 05:52:27;;;;;;;;;;;;;;;23.78;100.00;100809.91;12866577;23;19995;-69
2022/08/25 05:57:32;;;;;;;;;;;;;;;23.83;100.00;100821.09;12866879;23;19940;-70
2022/08/25 06:02:42;;;;;;;;;;;;;;;23.89;100.00;100809.31;12864467;23;19991;-69
2022/08/25 06:07:46;;;;;;;;;;;;;;;23.97;100.00;100822.97;12879262;23;19940;-69
2022/08/25 06:12:51;;;;;;;;;;;;;;;24.04;100.00;100815.56;12866571;23;19951;-70
2022/08/25 06:17:56;;;;;;;;;;;;;;;24.13;100.00;100818.53;12867092;23;19955;-69
2022/08/25 06:23:04;;;;;;;;;;;;;;;24.14;100.00;100825.56;12867353;23;19920;-68
2022/08/25 06:28:08;;;;;;;;;;;;;;;24.27;100.00;100823.00;12866612;23;19948;-69
2022/08/25 06:33:11;;;;;;;;;;;;;;;24.38;100.00;100818.78;12866143;23;19959;-69
2022/08/25 06:38:14;;;;;;;;;;;;;;;24.50;100.00;100812.75;12865839;23;19998;-69
2022/08/25 06:43:18;;;;;;;;;;;;;;;24.60;100.00;100818.34;12866413;23;19958;-69
2022/08/25 06:48:22;;;;;;;;;;;;;;;24.73;100.00;100819.38;12866219;23;19948;-69
2022/08/25 06:53:25;;;;;;;;;;;;;;;24.84;100.00;100816.88;12865876;23;20270;-69
2022/08/25 06:58:30;;;;;;;;;;;;;;;24.96;100.00;100817.00;12866216;23;20350;-68
2022/08/25 07:03:33;;;;;;;;;;;;;;;25.07;100.00;100817.16;12866287;23;19931;-68
2022/08/25 07:08:37;;;;;;;;;;;;;;;25.24;100.00;100820.56;12866156;23;19983;-69
2022/08/25 07:13:41;;;;;;;;;;;;;;;25.36;97.80;100814.47;12865682;23;19920;-61
2022/08/25 07:18:44;;;;;;;;;;;;;;;25.50;96.38;100819.81;12865778;23;19943;-64
2022/08/25 07:23:47;;;;;;;;;;;;;;;25.61;95.19;100826.13;12865470;23;19990;-67
2022/08/25 07:28:52;;;;;;;;;;;;;;;25.73;94.22;100825.34;12865332;23;20276;-65
2022/08/25 07:39:18;;;;;;;;;;;;;;;25.84;95.26;100828.16;12868093;23;20307;-64
2022/08/25 07:44:25;;;;;;;;;;;;;;;25.90;94.28;100835.72;12879188;23;19951;-66
2022/08/25 07:49:30;;;;;;;;;;;;;;;25.97;93.95;100836.19;12878812;23;19930;-62
2022/08/25 07:54:41;;;;;;;;;;;;;;;25.99;92.66;100837.78;12866554;23;19999;-67
2022/08/25 07:59:50;;;;;;;;;;;;;;;25.97;92.20;100833.53;12865730;23;19990;-65
2022/08/25 08:04:53;;;;;;;;;;;;;;;25.98;91.42;100825.44;12865206;23;20352;-68
2022/08/25 08:09:56;;;;;;;;;;;;;;;26.00;89.62;100823.53;12861358;23;20223;-68
2022/08/25 08:15:21;;;;;;;;;;;;;;;26.05;88.00;100825.91;12870927;23;20387;-67
2022/08/25 08:20:24;;;;;;;;;;;;;;;26.05;87.73;100833.91;12861604;23;19999;-67
2022/08/25 08:25:27;;;;;;;;;;;;;;;26.01;88.11;100837.69;12862212;23;19962;-66
2022/08/25 08:30:32;;;;;;;;;;;;;;;26.02;88.50;100831.41;12864219;23;19923;-68
2022/08/25 08:35:36;;;;;;;;;;;;;;;26.07;88.43;100824.88;12876458;23;19935;-68
2022/08/25 08:42:15;;;;;;;;;;;;;;;26.09;87.27;100830.09;12862222;23;19958;-66
2022/08/25 08:46:12;;;;;;;;;;;;;;;26.36;85.48;100824.72;12872353;23;19962;-68
2022/08/25 08:51:19;;;;;;;;;;;;;;;26.45;84.52;100822.28;12860957;23;19923;-68
2022/08/25 08:56:26;;;;;;;;;;;;;;;26.54;84.31;100828.81;12861722;23;19956;-70
2022/08/25 09:01:35;;;;;;;;;;;;;;;26.65;82.43;100826.22;12871710;23;19947;-68
2022/08/25 09:06:41;;;;;;;;;;;;;;;26.63;82.18;100823.69;12871470;23;19950;-73
2022/08/25 09:11:51;;;;;;;;;;;;;;;26.74;79.88;100821.16;12871311;23;19919;-71
2022/08/25 09:17:00;;;;;;;;;;;;;;;26.85;79.17;100815.94;12871942;23;20326;-70
2022/08/25 09:22:08;;;;;;;;;;;;;;;27.01;79.34;100813.03;12870464;23;19962;-72
2022/08/25 09:27:33;;;;;;;;;;;;;;;27.17;78.48;100811.00;12863750;23;19920;-75
2022/08/25 09:32:40;;;;;;;;;;;;;;;27.45;75.80;100797.41;12869183;23;19955;-73
2022/08/25 09:37:57;;;;;;;;;;;;;;;27.72;72.89;100789.19;12868487;23;19939;-71
2022/08/25 09:43:04;;;;;;;;;;;;;;;27.85;73.47;100795.34;12859735;23;20653;-73
2022/08/25 09:48:22;;;;;;;;;;;;;;;28.02;73.18;100787.81;12868035;23;19951;-73
2022/08/25 09:53:26;;;;;;;;;;;;;;;29.47;64.16;100771.81;12867518;23;19945;-71
2022/08/25 09:58:29;;;;;;;;;;;;;;;34.66;46.17;100755.31;12862717;23;19993;-73
2022/08/25 10:03:34;;;;;;;;;;;;;;;32.07;51.53;100759.63;12861503;23;20312;-72
2022/08/25 10:08:39;;;;;;;;;;;;;;;31.56;52.09;100755.34;12861037;23;19920;-71
2022/08/25 10:13:45;;;;;;;;;;;;;;;31.50;50.54;100747.88;12859391;23;20212;-72
2022/08/25 10:19:01;;;;;;;;;;;;;;;31.79;45.22;100741.69;12867128;23;19924;-72
2022/08/25 10:24:04;;;;;;;;;;;;;;;31.83;44.99;100740.38;12865791;23;19964;-72
2022/08/25 10:29:16;;;;;;;;;;;;;;;31.83;44.42;100741.22;12867231;23;20025;-73
2022/08/25 10:34:28;;;;;;;;;;;;;;;32.06;42.13;100725.69;12865731;23;19984;-71
2022/08/25 10:39:36;;;;;;;;;;;;;;;32.25;41.52;100720.28;12865538;23;20255;-73
2022/08/25 10:50:14;;;;;;;;;;;;;;;32.56;41.58;100719.97;12859076;23;19955;-73
2022/08/25 10:55:21;;;;;;;;;;;;;;;32.66;41.65;100717.22;12858730;23;19951;-72
2022/08/25 11:00:28;;;;;;;;;;;;;;;32.93;40.85;100709.19;12868136;23;20027;-73
2022/08/25 11:05:40;;;;;;;;;;;;;;;33.13;40.95;100702.72;12866563;23;19920;-72
2022/08/25 11:10:45;;;;;;;;;;;;;;;33.34;41.88;100695.19;12865642;23;19940;-72
2022/08/25 11:15:52;;;;;;;;;;;;;;;33.76;40.37;100690.06;12869704;23;20335;-74
2022/08/25 11:21:20;;;;;;;;;;;;;;;34.18;37.86;100692.94;12867931;23;19995;-71
2022/08/25 11:26:28;;;;;;;;;;;;;;;34.48;37.44;100684.41;12867913;23;19924;-75
2022/08/25 11:31:39;;;;;;;;;;;;;;;34.89;38.48;100664.69;12865987;23;19920;-73
2022/08/25 11:36:50;;;;;;;;;;;;;;;35.26;36.53;100669.72;12867122;23;20216;-74
2022/08/25 11:42:00;;;;;;;;;;;;;;;35.86;35.22;100673.84;12886211;23;20319;-73
2022/08/25 11:47:14;;;;;;;;;;;;;;;36.25;34.05;100665.84;12886132;23;20290;-72
2022/08/25 11:52:44;;;;;;;;;;;;;;;36.63;34.08;100665.94;12889919;23;19951;-72
2022/08/25 11:57:49;;;;;;;;;;;;;;;37.02;33.66;100660.53;12889246;23;19973;-75
2022/08/25 12:02:55;;;;;;;;;;;;;;;37.32;33.10;100672.38;12888611;23;19986;-73
2022/08/25 12:13:42;;;;;;;;;;;;;;;36.51;33.79;100658.38;12869296;23;20003;-72
2022/08/25 12:18:45;;;;;;;;;;;;;;;36.50;32.53;100664.81;12867935;23;20315;-74
2022/08/25 12:24:08;;;;;;;;;;;;;;;36.50;32.42;100659.41;12879179;23;19959;-73
2022/08/25 12:29:14;;;;;;;;;;;;;;;36.45;32.86;100672.63;12879488;23;19956;-74
2022/08/25 12:34:36;;;;;;;;;;;;;;;36.45;33.54;100665.31;12868882;23;19930;-72
2022/08/25 12:39:45;;;;;;;;;;;;;;;36.43;33.45;100658.41;12883825;23;20356;-73
2022/08/25 12:45:07;;;;;;;;;;;;;;;36.44;32.78;100665.50;12883190;23;20271;-73
2022/08/25 12:50:25;;;;;;;;;;;;;;;36.71;32.04;100648.81;12868644;23;19924;-73
2022/08/25 12:55:30;;;;;;;;;;;;;;;38.30;29.33;100628.84;12880952;23;19951;-74
2022/08/25 13:00:37;;;;;;;;;;;;;;;39.59;28.55;100625.19;12867691;23;19943;-76
2022/08/25 13:06:09;;;;;;;;;;;;;;;39.99;29.39;100620.91;12880161;23;19992;-73
2022/08/25 13:11:18;;;;;;;;;;;;;;;39.75;27.67;100630.34;12878998;23;19920;-74
2022/08/25 13:16:23;;;;;;;;;;;;;;;38.91;29.91;100624.84;12878396;23;20304;-71
2022/08/25 13:21:33;;;;;;;;;;;;;;;38.58;30.14;100629.00;12878378;23;19974;-75
2022/08/25 13:26:42;;;;;;;;;;;;;;;38.02;30.84;100638.63;12874482;23;19943;-75
2022/08/25 13:31:53;;;;;;;;;;;;;;;37.37;30.45;100637.47;12877620;23;19920;-74
2022/08/25 13:42:19;;;;;;;;;;;;;;;36.32;30.87;100634.41;12876072;23;19963;-72
2022/08/25 13:47:38;;;;;;;;;;;;;;;35.91;31.22;100634.47;12875315;23;20005;-72
2022/08/25 13:52:49;;;;;;;;;;;;;;;35.61;32.46;100626.22;12874612;23;19919;-75
2022/08/25 13:57:53;;;;;;;;;;;;;;;35.41;32.86;100625.72;12866721;23;20002;-73
2022/08/25 14:02:59;;;;;;;;;;;;;;;35.21;32.87;100624.31;12873947;23;19943;-71
2022/08/25 14:08:03;;;;;;;;;;;;;;;35.05;32.76;100624.28;12866867;23;19943;-73
2022/08/25 14:13:31;;;;;;;;;;;;;;;34.92;33.15;100626.59;12872070;23;19994;-74
2022/08/25 14:18:35;;;;;;;;;;;;;;;34.76;34.51;100626.50;12872543;23;19986;-73
2022/08/25 14:23:39;;;;;;;;;;;;;;;34.57;33.81;100614.16;12866168;23;20315;-72
2022/08/25 14:28:43;;;;;;;;;;;;;;;34.44;33.74;100623.72;12872619;23;19920;-71
2022/08/25 14:33:50;;;;;;;;;;;;;;;34.25;33.41;100619.38;12866061;23;20272;-73
2022/08/25 14:38:55;;;;;;;;;;;;;;;34.05;34.04;100623.28;12866080;23;20282;-72
2022/08/25 14:43:59;;;;;;;;;;;;;;;33.88;34.69;100616.94;12866703;23;19931;-72
2022/08/25 14:49:05;;;;;;;;;;;;;;;33.71;35.42;100623.19;12865976;23;19924;-73
2022/08/25 14:54:11;;;;;;;;;;;;;;;33.57;35.80;100618.38;12865919;23;19951;-74
2022/08/25 14:59:17;;;;;;;;;;;;;;;33.35;35.70;100617.97;12871990;23;20003;-75
2022/08/25 15:04:22;;;;;;;;;;;;;;;33.13;35.26;100616.59;12872199;23;19951;-74
2022/08/25 15:09:25;;;;;;;;;;;;;;;32.91;35.13;100616.16;12865822;23;20009;-71
2022/08/25 15:14:39;;;;;;;;;;;;;;;32.69;34.97;100622.78;12866184;23;19927;-73
2022/08/25 15:19:42;;;;;;;;;;;;;;;32.45;35.63;100625.19;12871656;23;19946;-72
2022/08/25 15:24:47;;;;;;;;;;;;;;;32.27;36.69;100627.75;12867333;23;19974;-73
2022/08/25 15:29:51;;;;;;;;;;;;;;;32.06;36.08;100629.00;12870004;23;19939;-72
2022/08/25 15:34:55;;;;;;;;;;;;;;;31.83;36.08;100619.53;12870345;23;19974;-75
2022/08/25 15:39:58;;;;;;;;;;;;;;;31.63;37.03;100626.78;12870181;23;19995;-78
2022/08/25 15:45:03;;;;;;;;;;;;;;;31.43;37.36;100623.25;12869713;23;19920;-75
2022/08/25 15:50:08;;;;;;;;;;;;;;;31.28;38.97;100621.97;12869336;23;19996;-72
2022/08/25 15:55:12;;;;;;;;;;;;;;;31.10;38.65;100618.25;12869153;23;19951;-71
2022/08/25 16:00:17;;;;;;;;;;;;;;;30.96;38.12;100616.00;12869432;23;19943;-73
2022/08/25 16:05:20;;;;;;;;;;;;;;;30.82;39.03;100618.25;12872385;23;19998;-73
2022/08/25 16:10:28;;;;;;;;;;;;;;;30.68;39.09;100622.13;12875528;23;20253;-72
2022/08/25 16:15:32;;;;;;;;;;;;;;;30.55;39.48;100624.19;12868983;23;20330;-74
2022/08/25 16:20:36;;;;;;;;;;;;;;;30.42;38.95;100621.75;12868861;23;19959;-71
2022/08/25 16:25:40;;;;;;;;;;;;;;;30.26;43.23;100624.09;12864766;23;20247;-69
2022/08/25 16:30:49;;;;;;;;;;;;;;;29.64;47.87;100619.69;12861357;23;19999;-70
2022/08/25 16:36:03;;;;;;;;;;;;;;;29.32;47.50;100623.25;12868156;23;20530;-69
2022/08/25 16:41:09;;;;;;;;;;;;;;;29.16;46.56;100627.34;12867636;23;19999;-70
2022/08/25 16:46:14;;;;;;;;;;;;;;;29.05;46.26;100630.84;12862219;23;19931;-71
2022/08/25 16:51:20;;;;;;;;;;;;;;;29.00;46.04;100624.19;12867716;23;19940;-71
2022/08/25 16:56:27;;;;;;;;;;;;;;;28.89;45.81;100637.59;12869793;23;19959;-70
2022/08/25 17:01:34;;;;;;;;;;;;;;;28.77;45.59;100636.75;12863575;23;20247;-67
2022/08/25 17:06:38;;;;;;;;;;;;;;;28.65;45.98;100639.59;12867538;23;19974;-71
2022/08/25 17:11:44;;;;;;;;;;;;;;;28.65;45.78;100634.25;12861217;23;20504;-70
2022/08/25 17:16:49;;;;;;;;;;;;;;;28.59;46.00;100638.25;12867229;23;19962;-70
2022/08/25 17:21:53;;;;;;;;;;;;;;;28.57;46.30;100636.66;12867361;23;19955;-73
2022/08/25 17:26:56;;;;;;;;;;;;;;;28.54;45.68;100631.56;12860291;23;20386;-69
2022/08/25 17:32:02;;;;;;;;;;;;;;;28.45;45.49;100641.13;12860558;23;19951;-67
2022/08/25 17:37:05;;;;;;;;;;;;;;;28.42;44.91;100649.41;12860289;23;19935;-72
2022/08/25 17:42:09;;;;;;;;;;;;;;;28.36;45.13;100641.84;12860665;23;19924;-71
2022/08/25 17:47:13;;;;;;;;;;;;;;;28.28;45.61;100649.63;12860673;23;19995;-70
2022/08/25 17:52:18;;;;;;;;;;;;;;;28.16;46.05;100659.44;12867187;23;19962;-73
2022/08/25 17:57:27;;;;;;;;;;;;;;;28.09;45.35;100660.03;12866538;23;20007;-71
2022/08/25 18:02:31;;;;;;;;;;;;;;;27.99;44.60;100665.22;12860927;23;20363;-74
2022/08/25 18:07:35;;;;;;;;;;;;;;;27.94;44.16;100675.41;12859926;23;19999;-72
2022/08/25 18:12:38;;;;;;;;;;;;;;;27.84;45.06;100662.84;12859868;23;20027;-72
2022/08/25 18:17:43;;;;;;;;;;;;;;;27.75;45.19;100671.59;12860084;23;19935;-70
2022/08/25 18:22:47;;;;;;;;;;;;;;;27.65;45.81;100667.88;12867380;23;20006;-71
2022/08/25 18:27:50;;;;;;;;;;;;;;;27.54;45.82;100668.72;12861627;23;19951;-70
2022/08/25 18:32:54;;;;;;;;;;;;;;;27.45;45.96;100669.41;12860864;23;20343;-71
2022/08/25 18:43:18;;;;;;;;;;;;;;;27.27;46.72;100674.25;12866746;23;19923;-74
2022/08/25 18:48:23;;;;;;;;;;;;;;;27.20;47.39;100675.66;12859692;23;19958;-71
2022/08/25 18:53:31;;;;;;;;;;;;;;;27.12;48.70;100678.06;12866571;23;20068;-75
2022/08/25 18:58:52;;;;;;;;;;;;;;;27.02;48.31;100682.38;12864541;23;20315;-72
2022/08/25 19:03:57;;;;;;;;;;;;;;;26.96;48.22;100688.13;12858782;23;19944;-71
2022/08/25 19:09:00;;;;;;;;;;;;;;;26.92;48.19;100683.97;12859032;23;19948;-72
2022/08/25 19:14:04;;;;;;;;;;;;;;;26.85;49.39;100677.38;12859082;23;20009;-74
2022/08/25 19:19:15;;;;;;;;;;;;;;;26.85;49.23;100685.38;12864701;23;19959;-73
2022/08/25 19:24:19;;;;;;;;;;;;;;;26.81;49.59;100678.59;12858137;23;19944;-74
2022/08/25 19:29:23;;;;;;;;;;;;;;;26.77;49.55;100674.44;12857998;23;20254;-73
2022/08/25 19:34:30;;;;;;;;;;;;;;;26.75;49.96;100680.84;12859302;23;20267;-72
2022/08/25 19:39:35;;;;;;;;;;;;;;;26.69;49.83;100674.13;12865397;23;20347;-71
2022/08/25 19:44:41;;;;;;;;;;;;;;;26.65;50.18;100677.94;12865221;23;19947;-73
2022/08/25 19:49:46;;;;;;;;;;;;;;;26.60;50.16;100669.41;12858705;23;19983;-73
2022/08/25 19:54:51;;;;;;;;;;;;;;;26.52;50.98;100666.47;12866989;23;20326;-72
2022/08/25 19:59:54;;;;;;;;;;;;;;;26.46;50.49;100676.66;12860341;23;20095;-74
2022/08/25 20:04:59;;;;;;;;;;;;;;;26.39;51.65;100670.09;12858958;23;19965;-72
2022/08/25 20:10:05;;;;;;;;;;;;;;;26.31;51.96;100675.94;12858832;23;19928;-73
2022/08/25 20:15:09;;;;;;;;;;;;;;;26.24;52.53;100682.66;12870301;23;19962;-74
2022/08/25 20:20:15;;;;;;;;;;;;;;;26.17;52.17;100681.38;12862843;23;19940;-73
2022/08/25 20:25:19;;;;;;;;;;;;;;;26.10;52.71;100680.09;12869503;23;20315;-71
2022/08/25 20:30:26;;;;;;;;;;;;;;;25.99;52.61;100680.78;12869401;23;19958;-75
2022/08/25 20:35:31;;;;;;;;;;;;;;;25.89;53.89;100682.38;12861465;23;19960;-75
2022/08/25 20:40:34;;;;;;;;;;;;;;;25.80;53.28;100682.19;12861952;23;19951;-73
2022/08/25 20:45:39;;;;;;;;;;;;;;;25.70;55.66;100689.91;12861127;23;20003;-73
2022/08/25 20:50:43;;;;;;;;;;;;;;;25.59;57.41;100684.44;12861294;23;19955;-72
2022/08/25 20:55:47;;;;;;;;;;;;;;;25.46;57.73;100683.56;12861231;23;19998;-74
2022/08/25 21:00:50;;;;;;;;;;;;;;;25.39;57.98;100682.25;12861818;23;19952;-72
2022/08/25 21:05:55;;;;;;;;;;;;;;;25.32;60.45;100677.41;12861192;23;19956;-72
2022/08/25 21:10:59;;;;;;;;;;;;;;;25.24;62.34;100679.72;12861117;23;20000;-72
2022/08/25 21:16:02;;;;;;;;;;;;;;;25.19;62.27;100689.81;12860730;23;19966;-72
2022/08/25 21:21:12;;;;;;;;;;;;;;;25.07;62.17;100681.66;12861588;23;19947;-75
2022/08/25 21:26:17;;;;;;;;;;;;;;;25.04;63.17;100678.34;12871722;23;19920;-72
2022/08/25 21:31:20;;;;;;;;;;;;;;;24.92;64.12;100677.34;12861205;23;19974;-74
2022/08/25 21:36:27;;;;;;;;;;;;;;;24.88;65.34;100683.81;12860705;23;19927;-71
2022/08/25 21:41:32;;;;;;;;;;;;;;;24.81;65.02;100686.94;12870125;23;19931;-73
2022/08/25 21:46:36;;;;;;;;;;;;;;;24.74;66.00;100689.16;12861349;23;19947;-72
2022/08/25 21:51:42;;;;;;;;;;;;;;;24.65;65.93;100679.06;12860212;23;19962;-71
2022/08/25 21:56:48;;;;;;;;;;;;;;;24.53;66.52;100686.94;12860390;23;19955;-73
2022/08/25 22:01:54;;;;;;;;;;;;;;;24.45;66.57;100686.56;12869463;23;20252;-73
2022/08/25 22:06:59;;;;;;;;;;;;;;;24.38;67.38;100683.44;12860355;23;19995;-71
2022/08/25 22:12:05;;;;;;;;;;;;;;;24.32;68.30;100681.16;12869458;23;19952;-76
2022/08/25 22:17:08;;;;;;;;;;;;;;;24.22;69.29;100672.06;12859370;23;19924;-72
2022/08/25 22:22:20;;;;;;;;;;;;;;;24.17;69.33;100679.44;12869019;23;20340;-73
2022/08/25 22:27:23;;;;;;;;;;;;;;;24.15;69.51;100668.06;12859818;23;19995;-71
2022/08/25 22:32:27;;;;;;;;;;;;;;;24.12;69.79;100668.28;12859608;23;19951;-73
2022/08/25 22:37:31;;;;;;;;;;;;;;;24.06;70.33;100652.72;12860316;23;20035;-73
2022/08/25 22:42:36;;;;;;;;;;;;;;;23.96;71.68;100655.03;12859931;23;19919;-71
2022/08/25 22:47:39;;;;;;;;;;;;;;;23.89;73.17;100655.50;12859691;23;20338;-71
2022/08/25 22:52:44;;;;;;;;;;;;;;;23.86;73.77;100650.38;12861588;23;19990;-76
2022/08/25 22:57:47;;;;;;;;;;;;;;;23.81;73.93;100641.84;12860620;23;20307;-74
2022/08/25 23:02:51;;;;;;;;;;;;;;;23.71;74.25;100644.19;12859757;23;19947;-73
2022/08/25 23:07:56;;;;;;;;;;;;;;;23.69;74.23;100645.22;12859560;23;19951;-73
2022/08/25 23:13:00;;;;;;;;;;;;;;;23.61;75.22;100640.38;12859499;23;19987;-72
2022/08/25 23:18:03;;;;;;;;;;;;;;;23.56;76.24;100641.59;12858728;23;20105;-73
2022/08/25 23:23:07;;;;;;;;;;;;;;;23.58;76.65;100645.00;12858576;23;19994;-74
2022/08/25 23:28:10;;;;;;;;;;;;;;;23.51;77.23;100635.72;12858431;23;19955;-72
2022/08/25 23:33:14;;;;;;;;;;;;;;;23.42;77.48;100639.75;12858653;23;19927;-74
2022/08/25 23:38:23;;;;;;;;;;;;;;;23.44;77.41;100643.16;12859494;23;19955;-72
2022/08/25 23:43:26;;;;;;;;;;;;;;;23.44;76.87;100637.00;12858208;23;20080;-72
2022/08/25 23:48:29;;;;;;;;;;;;;;;23.35;76.84;100642.88;12862982;23;20007;-71
2022/08/25 23:53:34;;;;;;;;;;;;;;;23.28;76.98;100637.03;12862888;23;20011;-71
2022/08/25 23:58:37;;;;;;;;;;;;;;;23.26;77.16;100630.97;12862850;23;19999;-73
